createdAt,value
2022-08-04T00:00:00.934Z,1.42
2022-08-04T00:02:37.718Z,1.50
2022-08-04T00:05:06.215Z,1.50
2022-08-04T00:07:42.567Z,1.40
2022-08-04T00:10:16.414Z,1.58
2022-08-04T00:12:48.754Z,1.40
2022-08-04T00:15:17.404Z,1.70
2022-08-04T00:17:49.177Z,1.30
2022-08-04T00:22:46.771Z,1.60
2022-08-04T00:25:13.613Z,1.60
2022-08-04T00:27:40.413Z,1.60
2022-08-04T00:30:07.745Z,1.50
2022-08-04T00:32:34.976Z,1.73
2022-08-04T00:35:02.266Z,1.60
2022-08-04T00:37:28.917Z,1.50
2022-08-04T00:39:56.909Z,1.40
2022-08-04T00:42:37.708Z,1.40
2022-08-04T00:46:16.343Z,1.58
2022-08-04T00:48:31.699Z,1.25
2022-08-04T00:51:13.463Z,1.52
2022-08-04T00:54:03.007Z,1.30
2022-08-04T00:56:39.683Z,1.40
2022-08-04T00:59:30.222Z,1.75
2022-08-04T01:02:05.645Z,1.63
2022-08-04T01:04:41.251Z,1.50
2022-08-04T01:07:25.487Z,1.73
2022-08-04T01:09:54.737Z,2.10
2022-08-04T01:12:24.276Z,1.67
2022-08-04T01:14:59.831Z,1.73
2022-08-04T01:17:43.725Z,1.40
2022-08-04T01:20:12.071Z,1.92
2022-08-04T01:23:06.744Z,1.63
2022-08-04T01:25:45.152Z,1.60
2022-08-04T01:28:11.660Z,1.50
2022-08-04T01:30:43.206Z,1.60
2022-08-04T01:33:14.280Z,1.40
2022-08-04T01:35:48.394Z,1.65
2022-08-04T01:38:45.299Z,1.70
2022-08-04T01:41:19.206Z,2.00
2022-08-04T01:44:02.020Z,1.60
2022-08-04T01:46:34.183Z,1.63
2022-08-04T01:49:02.890Z,1.70
2022-08-04T01:51:36.052Z,1.48
2022-08-04T01:54:02.840Z,1.88
2022-08-04T01:56:31.208Z,1.70
2022-08-04T01:58:58.136Z,2.08
2022-08-04T02:01:25.422Z,1.80
2022-08-04T02:04:20.505Z,1.50
2022-08-04T02:06:38.585Z,1.63
2022-08-04T02:09:17.718Z,1.60
2022-08-04T02:12:06.831Z,1.60
2022-08-04T02:14:53.543Z,1.70
2022-08-04T02:17:30.263Z,1.65
2022-08-04T02:20:19.249Z,1.70
2022-08-04T02:23:07.138Z,1.85
2022-08-04T02:25:43.399Z,1.67
2022-08-04T02:28:17.481Z,1.45
2022-08-04T02:30:50.265Z,1.60
2022-08-04T02:33:24.042Z,1.70
2022-08-04T02:35:55.633Z,1.73
2022-08-04T02:38:34.875Z,1.45
2022-08-04T02:41:02.315Z,1.55
2022-08-04T02:43:51.931Z,1.60
2022-08-04T02:46:21.807Z,1.85
2022-08-04T02:48:51.076Z,1.83
2022-08-04T02:51:23.568Z,1.70
2022-08-04T02:53:53.613Z,1.77
2022-08-04T02:56:21.715Z,1.60
2022-08-04T02:58:59.797Z,1.77
2022-08-04T03:01:27.008Z,2.17
2022-08-04T03:04:05.384Z,1.77
2022-08-04T03:06:52.951Z,1.90
2022-08-04T03:09:39.375Z,2.20
2022-08-04T03:13:01.497Z,2.53
2022-08-04T03:16:10.036Z,2.10
2022-08-04T03:19:03.827Z,2.28
2022-08-04T03:22:08.885Z,2.00
2022-08-04T03:24:38.097Z,2.10
2022-08-04T03:27:10.498Z,2.00
2022-08-04T03:29:55.749Z,2.35
2022-08-04T03:32:56.742Z,2.15
2022-08-04T03:36:07.298Z,2.03
2022-08-04T03:38:45.843Z,1.75
2022-08-04T03:42:04.287Z,2.03
2022-08-04T03:44:55.948Z,1.95
2022-08-04T03:47:47.349Z,2.23
2022-08-04T03:50:25.894Z,2.47
2022-08-04T03:53:14.439Z,2.20
2022-08-04T03:56:23.883Z,1.73
2022-08-04T03:59:12.625Z,2.08
2022-08-04T04:02:10.043Z,2.10
2022-08-04T04:05:02.460Z,1.90
2022-08-04T04:08:12.495Z,1.88
2022-08-04T04:11:22.743Z,2.13
2022-08-04T04:14:08.064Z,2.42
2022-08-04T04:16:41.250Z,2.60
2022-08-04T04:19:36.913Z,2.20
2022-08-04T04:22:15.493Z,2.10
2022-08-04T04:25:12.732Z,2.20
2022-08-04T04:28:44.384Z,2.10
2022-08-04T04:31:41.389Z,2.45
2022-08-04T04:34:25.857Z,2.50
2022-08-04T04:37:07.593Z,2.45
2022-08-04T04:39:39.959Z,2.45
2022-08-04T04:42:25.091Z,2.50
2022-08-04T04:45:10.597Z,3.03
2022-08-04T04:48:08.033Z,2.70
2022-08-04T04:50:42.120Z,2.45
2022-08-04T04:53:27.627Z,2.42
2022-08-04T04:56:03.509Z,2.75
2022-08-04T04:58:34.278Z,2.28
2022-08-04T05:01:33.896Z,2.08
2022-08-04T05:04:18.721Z,2.17
2022-08-04T05:07:03.914Z,1.95
2022-08-04T05:09:52.256Z,2.60
2022-08-04T05:14:37.122Z,2.28
2022-08-04T05:15:56.156Z,2.30
2022-08-04T05:18:27.231Z,2.40
2022-08-04T05:20:58.458Z,2.10
2022-08-04T05:23:28.999Z,2.58
2022-08-04T05:26:07.675Z,2.78
2022-08-04T05:28:41.852Z,2.88
2022-08-04T05:31:23.368Z,3.05
2022-08-04T05:34:03.398Z,3.78
2022-08-04T05:36:52.269Z,3.20
2022-08-04T05:39:34.134Z,2.97
2022-08-04T05:42:04.319Z,3.28
2022-08-04T05:44:33.871Z,3.03
2022-08-04T05:47:01.867Z,3.08
2022-08-04T05:49:29.387Z,3.85
2022-08-04T05:52:00.333Z,3.05
2022-08-04T05:54:28.959Z,3.60
2022-08-04T05:56:57.384Z,4.05
2022-08-04T05:59:25.924Z,3.88
2022-08-04T06:01:57.679Z,4.15
2022-08-04T06:04:54.021Z,3.88
2022-08-04T06:07:20.958Z,3.90
2022-08-04T06:09:47.977Z,4.00
2022-08-04T06:12:31.047Z,4.20
2022-08-04T06:15:00.259Z,3.70
2022-08-04T06:19:10.078Z,4.47
2022-08-04T06:20:37.353Z,4.25
2022-08-04T06:23:08.640Z,4.10
2022-08-04T06:25:41.479Z,4.47
2022-08-04T06:28:08.628Z,4.45
2022-08-04T06:30:37.219Z,3.83
2022-08-04T06:33:13.901Z,3.53
2022-08-04T06:35:41.141Z,3.60
2022-08-04T06:38:09.546Z,3.70
2022-08-04T06:40:36.348Z,3.58
2022-08-04T06:43:07.028Z,3.80
2022-08-04T06:45:37.028Z,3.78
2022-08-04T06:48:06.513Z,3.40
2022-08-04T06:51:29.205Z,3.80
2022-08-04T06:53:24.411Z,3.28
2022-08-04T06:55:52.604Z,3.63
2022-08-04T06:58:20.749Z,3.35
2022-08-04T07:00:48.477Z,3.22
2022-08-04T07:03:17.903Z,2.97
2022-08-04T07:05:47.282Z,3.45
2022-08-04T07:08:14.418Z,2.55
2022-08-04T07:10:41.335Z,2.90
2022-08-04T07:13:09.534Z,2.60
2022-08-04T07:15:39.119Z,2.90
2022-08-04T07:18:05.830Z,2.78
2022-08-04T07:20:35.976Z,2.63
2022-08-04T07:23:05.903Z,2.78
2022-08-04T07:26:00.014Z,2.78
2022-08-04T07:28:25.184Z,2.38
2022-08-04T07:30:53.700Z,2.88
2022-08-04T07:33:20.959Z,3.03
2022-08-04T07:36:04.838Z,2.83
2022-08-04T07:38:37.399Z,3.20
2022-08-04T07:41:35.324Z,2.60
2022-08-04T07:43:54.837Z,2.78
2022-08-04T07:46:21.516Z,2.63
2022-08-04T07:48:48.517Z,2.90
2022-08-04T07:51:16.630Z,2.80
2022-08-04T07:53:55.012Z,2.90
2022-08-04T07:56:22.954Z,2.85
2022-08-04T07:58:50.520Z,2.78
2022-08-04T08:01:17.551Z,2.90
2022-08-04T08:03:44.362Z,3.00
2022-08-04T08:06:31.105Z,3.00
2022-08-04T08:09:02.107Z,3.25
2022-08-04T08:12:37.369Z,3.92
2022-08-04T08:14:28.430Z,3.22
2022-08-04T08:16:55.189Z,2.70
2022-08-04T08:19:22.017Z,3.83
2022-08-04T08:21:58.956Z,2.75
2022-08-04T08:24:31.409Z,3.08
2022-08-04T08:26:58.941Z,2.50
2022-08-04T08:29:26.784Z,3.22
2022-08-04T08:31:58.368Z,2.72
2022-08-04T08:34:29.538Z,2.60
2022-08-04T08:37:22.923Z,2.58
2022-08-04T08:39:58.247Z,2.50
2022-08-04T08:43:00.135Z,2.42
2022-08-04T08:46:45.357Z,2.70
2022-08-04T08:50:00.361Z,2.60
2022-08-04T08:53:00.553Z,2.24
2022-08-04T08:55:40.044Z,2.40
2022-08-04T08:58:25.018Z,2.42
2022-08-04T09:01:02.907Z,2.30
2022-08-04T09:04:03.783Z,2.53
2022-08-04T09:07:01.617Z,2.30
2022-08-04T09:09:52.525Z,4.68
2022-08-04T09:12:32.860Z,2.97
2022-08-04T09:15:22.127Z,2.80
2022-08-04T09:17:57.358Z,2.88
2022-08-04T09:20:59.357Z,2.60
2022-08-04T09:23:41.271Z,2.70
2022-08-04T09:26:26.703Z,2.95
2022-08-04T09:29:11.031Z,2.60
2022-08-04T09:32:07.033Z,2.70
2022-08-04T09:35:15.360Z,2.42
2022-08-04T09:37:45.831Z,2.92
2022-08-04T09:40:31.903Z,2.75
2022-08-04T09:43:28.063Z,2.65
2022-08-04T09:46:26.217Z,2.95
2022-08-04T09:49:05.062Z,2.50
2022-08-04T09:51:58.738Z,3.33
2022-08-04T09:54:53.360Z,2.47
2022-08-04T10:00:13.584Z,3.05
2022-08-04T10:02:47.077Z,2.25
2022-08-04T10:05:18.643Z,2.40
2022-08-04T10:08:15.716Z,2.60
2022-08-04T10:11:02.083Z,2.90
2022-08-04T10:13:31.703Z,2.65
2022-08-04T10:16:17.234Z,2.20
2022-08-04T10:19:34.309Z,1.80
2022-08-04T10:22:29.455Z,1.52
2022-08-04T10:26:03.263Z,1.90
2022-08-04T10:28:17.359Z,1.85
2022-08-04T10:30:50.014Z,1.95
2022-08-04T10:33:32.983Z,1.67
2022-08-04T10:36:04.001Z,1.80
2022-08-04T10:38:35.533Z,1.90
2022-08-04T10:41:08.531Z,1.95
2022-08-04T10:44:14.677Z,2.05
2022-08-04T10:46:53.001Z,2.03
2022-08-04T10:49:29.863Z,1.77
2022-08-04T10:52:08.693Z,1.65
2022-08-04T10:54:55.851Z,1.70
2022-08-04T10:57:36.070Z,1.40
2022-08-04T11:00:09.156Z,1.60
2022-08-04T11:03:17.279Z,1.65
2022-08-04T11:05:55.020Z,1.35
2022-08-04T11:08:26.924Z,1.90
2022-08-04T11:11:01.408Z,0.95
2022-08-04T11:14:11.662Z,1.40
2022-08-04T11:16:59.108Z,1.30
2022-08-04T11:19:42.753Z,1.60
2022-08-04T11:22:20.295Z,1.50
2022-08-04T11:25:15.898Z,1.77
2022-08-04T11:27:53.949Z,1.40
2022-08-04T11:30:20.773Z,1.75
2022-08-04T11:33:02.055Z,1.45
2022-08-04T11:38:38.780Z,1.35
2022-08-04T11:41:10.915Z,1.50
2022-08-04T11:44:03.221Z,1.42
2022-08-04T11:46:40.015Z,1.40
2022-08-04T11:49:56.405Z,1.50
2022-08-04T11:52:26.347Z,1.70
2022-08-04T11:54:55.122Z,1.15
2022-08-04T11:57:36.067Z,1.17
2022-08-04T12:00:07.722Z,1.05
2022-08-04T12:03:12.157Z,1.23
2022-08-04T12:06:06.784Z,0.98
2022-08-04T12:08:50.055Z,1.10
2022-08-04T12:11:55.393Z,1.20
2022-08-04T12:14:38.911Z,1.30
2022-08-04T12:17:06.276Z,0.90
2022-08-04T12:20:05.213Z,0.95
2022-08-04T12:22:44.197Z,1.05
2022-08-04T12:25:18.121Z,1.10
2022-08-04T12:28:02.986Z,1.20
2022-08-04T12:30:58.760Z,0.90
2022-08-04T12:33:24.140Z,1.00
2022-08-04T12:36:22.190Z,1.05
2022-08-04T12:39:17.978Z,1.15
2022-08-04T12:42:11.391Z,1.00
2022-08-04T12:44:41.094Z,0.80
2022-08-04T12:47:26.446Z,1.33
2022-08-04T12:50:01.990Z,1.23
2022-08-04T12:52:59.235Z,1.60
2022-08-04T12:55:23.950Z,1.40
2022-08-04T12:57:52.143Z,1.58
2022-08-04T13:00:40.553Z,1.25
2022-08-04T13:03:16.825Z,1.10
2022-08-04T13:05:45.472Z,1.27
2022-08-04T13:08:13.606Z,1.10
2022-08-04T13:10:47.132Z,1.20
2022-08-04T13:13:17.605Z,0.95
2022-08-04T13:15:56.904Z,1.20
2022-08-04T13:18:29.550Z,1.30
2022-08-04T13:21:19.645Z,1.25
2022-08-04T13:24:09.989Z,1.05
2022-08-04T13:26:42.869Z,1.42
2022-08-04T13:29:22.625Z,1.55
2022-08-04T13:32:11.040Z,1.42
2022-08-04T13:34:41.178Z,1.23
2022-08-04T13:37:20.914Z,1.90
2022-08-04T13:39:55.586Z,1.55
2022-08-04T13:42:26.022Z,1.35
2022-08-04T13:44:59.509Z,1.23
2022-08-04T13:47:34.206Z,1.20
2022-08-04T13:50:15.670Z,1.42
2022-08-04T13:52:43.957Z,1.40
2022-08-04T13:55:26.353Z,1.00
2022-08-04T13:57:58.419Z,1.40
2022-08-04T14:00:29.258Z,1.15
2022-08-04T14:03:03.656Z,1.30
2022-08-04T14:06:07.071Z,1.20
2022-08-04T14:08:42.831Z,1.30
2022-08-04T14:11:09.821Z,1.10
2022-08-04T14:13:56.425Z,1.17
2022-08-04T14:16:23.165Z,1.30
2022-08-04T14:19:00.046Z,1.40
2022-08-04T14:21:26.824Z,1.20
2022-08-04T14:23:56.792Z,1.13
2022-08-04T14:26:32.501Z,1.30
2022-08-04T14:29:27.251Z,1.40
2022-08-04T14:32:11.456Z,1.20
2022-08-04T14:34:42.616Z,1.45
2022-08-04T14:37:17.143Z,1.35
2022-08-04T14:40:17.786Z,1.35
2022-08-04T14:42:54.516Z,1.40
2022-08-04T14:45:35.510Z,1.35
2022-08-04T14:48:06.967Z,1.45
2022-08-04T14:50:45.446Z,1.17
2022-08-04T14:53:26.432Z,1.50
2022-08-04T14:55:57.022Z,1.10
2022-08-04T14:58:34.692Z,1.20
2022-08-04T15:01:11.000Z,1.42
2022-08-04T15:03:50.402Z,1.20
2022-08-04T15:06:26.308Z,1.20
2022-08-04T15:08:56.432Z,1.73
2022-08-04T15:11:24.170Z,1.40
2022-08-04T15:13:56.387Z,1.50
2022-08-04T15:16:25.052Z,1.38
2022-08-04T15:18:54.885Z,1.23
2022-08-04T15:21:25.937Z,1.60
2022-08-04T15:23:52.827Z,1.60
2022-08-04T15:26:49.621Z,1.40
2022-08-04T15:29:20.726Z,1.27
2022-08-04T15:32:07.044Z,1.40
2022-08-04T15:34:51.824Z,1.50
2022-08-04T15:37:26.440Z,1.20
2022-08-04T15:40:01.117Z,1.35
2022-08-04T15:42:32.697Z,1.35
2022-08-04T15:45:05.776Z,1.77
2022-08-04T15:47:32.405Z,0.95
2022-08-04T15:50:03.525Z,1.55
2022-08-04T15:52:32.090Z,1.30
2022-08-04T15:55:34.784Z,1.42
2022-08-04T15:58:04.657Z,1.58
2022-08-04T16:00:49.760Z,1.15
2022-08-04T16:03:58.582Z,1.63
2022-08-04T16:06:22.257Z,1.50
2022-08-04T16:08:57.692Z,1.65
2022-08-04T16:11:32.599Z,1.52
2022-08-04T16:13:59.783Z,1.35
2022-08-04T16:16:31.774Z,1.60
2022-08-04T16:19:10.030Z,1.42
2022-08-04T16:21:50.896Z,1.50
2022-08-04T16:24:21.498Z,1.52
2022-08-04T16:26:58.830Z,1.48
2022-08-04T16:29:34.507Z,1.60
2022-08-04T16:32:16.605Z,1.58
2022-08-04T16:34:54.499Z,1.60
2022-08-04T16:37:43.138Z,1.58
2022-08-04T16:40:31.750Z,1.55
2022-08-04T16:45:50.952Z,1.55
2022-08-04T16:48:19.735Z,1.30
2022-08-04T16:51:06.872Z,1.58
2022-08-04T16:54:03.709Z,1.80
2022-08-04T16:56:33.602Z,1.40
2022-08-04T16:59:11.332Z,1.30
2022-08-04T17:01:51.147Z,1.40
2022-08-04T17:04:18.091Z,1.60
2022-08-04T17:06:49.515Z,1.60
2022-08-04T17:09:18.311Z,1.52
2022-08-04T17:11:47.489Z,1.55
2022-08-04T17:14:21.762Z,1.40
2022-08-04T17:16:48.640Z,1.50
2022-08-04T17:19:24.005Z,1.30
2022-08-04T17:22:02.354Z,1.50
2022-08-04T17:24:31.457Z,1.63
2022-08-04T17:26:58.963Z,1.33
2022-08-04T17:32:21.194Z,2.53
2022-08-04T17:34:54.320Z,5.07
2022-08-04T17:37:51.899Z,3.63
2022-08-04T17:40:13.468Z,1.88
2022-08-04T17:42:41.536Z,1.63
2022-08-04T17:48:24.724Z,1.50
2022-08-04T17:50:51.900Z,1.70
2022-08-04T17:53:52.925Z,1.52
2022-08-04T17:56:51.786Z,1.80
2022-08-04T17:59:55.995Z,1.65
2022-08-04T18:02:08.818Z,1.70
2022-08-04T18:05:05.333Z,2.80
2022-08-04T18:08:38.395Z,1.42
2022-08-04T18:10:52.527Z,2.42
2022-08-04T18:13:27.207Z,1.73
2022-08-04T18:16:02.533Z,1.40
2022-08-04T18:18:29.796Z,1.25
2022-08-04T18:20:59.767Z,1.70
2022-08-04T18:23:31.773Z,1.95
2022-08-04T18:26:02.465Z,1.42
2022-08-04T18:28:31.311Z,1.15
2022-08-04T18:31:00.832Z,1.30
2022-08-04T18:33:37.460Z,1.60
2022-08-04T18:38:58.205Z,1.63
2022-08-04T18:41:26.684Z,1.50
2022-08-04T18:43:55.782Z,2.00
2022-08-04T18:46:26.996Z,1.98
2022-08-04T18:48:54.349Z,1.77
2022-08-04T18:51:30.650Z,2.08
2022-08-04T18:53:59.061Z,1.95
2022-08-04T18:56:32.590Z,1.42
2022-08-04T18:59:04.847Z,1.77
2022-08-04T19:02:12.344Z,1.80
2022-08-04T19:04:33.229Z,1.60
2022-08-04T19:07:23.464Z,1.77
2022-08-04T19:09:51.826Z,1.50
2022-08-04T19:12:26.378Z,1.40
2022-08-04T19:14:58.259Z,1.50
2022-08-04T19:17:54.067Z,1.48
2022-08-04T19:20:15.828Z,1.55
2022-08-04T19:25:58.933Z,1.48
2022-08-04T19:28:29.913Z,1.40
2022-08-04T19:30:58.948Z,1.73
2022-08-04T19:33:28.524Z,1.50
2022-08-04T19:36:12.437Z,1.63
2022-08-04T19:38:39.236Z,1.40
2022-08-04T19:41:14.347Z,1.48
2022-08-04T19:43:43.990Z,1.17
2022-08-04T19:46:12.185Z,1.60
2022-08-04T19:48:39.730Z,1.45
2022-08-04T19:51:07.828Z,1.55
2022-08-04T19:53:38.163Z,1.48
2022-08-04T19:56:10.183Z,1.70
2022-08-04T19:58:38.637Z,2.08
2022-08-04T20:01:05.274Z,1.67
2022-08-04T20:04:10.469Z,1.83
2022-08-04T20:06:38.005Z,1.75
2022-08-04T20:09:04.586Z,1.55
2022-08-04T20:11:51.228Z,1.60
2022-08-04T20:14:17.876Z,1.73
2022-08-04T20:16:46.392Z,1.77
2022-08-04T20:19:14.258Z,1.85
2022-08-04T20:21:54.784Z,1.88
2022-08-04T20:24:38.909Z,1.80
2022-08-04T20:27:14.903Z,1.70
2022-08-04T20:29:49.938Z,2.15
2022-08-04T20:32:19.338Z,2.00
2022-08-04T20:34:46.989Z,1.77
2022-08-04T20:37:15.378Z,2.00
2022-08-04T20:39:42.418Z,2.00
2022-08-04T20:42:11.529Z,1.67
2022-08-04T20:44:42.179Z,2.25
2022-08-04T20:47:20.470Z,2.53
2022-08-04T20:49:49.027Z,1.92
2022-08-04T20:52:20.213Z,2.10
2022-08-04T20:54:48.111Z,1.95
2022-08-04T20:57:16.898Z,2.05
2022-08-04T20:59:50.326Z,2.03
2022-08-04T21:02:27.169Z,2.15
2022-08-04T21:04:53.880Z,2.00
2022-08-04T21:07:22.249Z,2.30
2022-08-04T21:09:50.695Z,2.20
2022-08-04T21:12:28.322Z,2.22
2022-08-04T21:15:01.578Z,2.65
2022-08-04T21:17:58.931Z,2.40
2022-08-04T21:20:28.544Z,3.10
2022-08-04T21:22:59.596Z,3.08
2022-08-04T21:25:28.469Z,3.17
2022-08-04T21:27:55.649Z,4.07
2022-08-04T21:30:26.705Z,3.25
2022-08-04T21:32:55.109Z,3.35
2022-08-04T21:35:36.782Z,3.40
2022-08-04T21:38:13.949Z,3.17
2022-08-04T21:40:54.279Z,3.13
2022-08-04T21:43:23.763Z,3.72
2022-08-04T21:45:55.038Z,4.80
2022-08-04T21:48:22.536Z,4.35
2022-08-04T21:50:50.534Z,4.70
2022-08-04T21:53:19.838Z,4.68
2022-08-04T21:56:04.597Z,4.10
2022-08-04T21:58:36.115Z,4.15
2022-08-04T22:01:06.079Z,4.60
2022-08-04T22:03:53.442Z,4.15
2022-08-04T22:06:28.410Z,4.68
2022-08-04T22:08:56.866Z,3.90
2022-08-04T22:11:48.951Z,4.97
2022-08-04T22:14:16.970Z,5.25
2022-08-04T22:16:45.256Z,4.90
2022-08-04T22:19:13.543Z,4.93
2022-08-04T22:21:46.715Z,5.40
2022-08-04T22:24:14.506Z,4.75
2022-08-04T22:26:41.411Z,5.55
2022-08-04T22:29:14.563Z,5.35
2022-08-04T22:31:56.369Z,5.20
2022-08-04T22:34:25.033Z,5.18
2022-08-04T22:36:53.367Z,5.38
2022-08-04T22:39:23.556Z,5.22
2022-08-04T22:42:03.071Z,5.38
2022-08-04T22:44:33.013Z,4.82
2022-08-04T22:47:00.541Z,5.05
2022-08-04T22:49:31.504Z,5.40
2022-08-04T22:51:58.855Z,5.70
2022-08-04T22:54:26.121Z,5.30
2022-08-04T22:56:55.394Z,5.75
2022-08-04T22:59:23.806Z,6.40
2022-08-04T23:01:58.659Z,5.43
2022-08-04T23:04:29.636Z,5.35
2022-08-04T23:06:56.551Z,6.00
2022-08-04T23:09:27.052Z,6.07
2022-08-04T23:12:27.572Z,5.75
2022-08-04T23:14:58.143Z,5.40
2022-08-04T23:17:27.834Z,5.60
2022-08-04T23:19:59.028Z,5.80
2022-08-04T23:22:41.069Z,6.05
2022-08-04T23:25:15.235Z,5.93
2022-08-04T23:27:43.723Z,5.70
2022-08-04T23:30:11.165Z,5.40
2022-08-04T23:32:37.847Z,5.75
2022-08-04T23:35:04.727Z,5.90
2022-08-04T23:37:35.178Z,5.80
2022-08-04T23:40:28.087Z,5.90
2022-08-04T23:42:48.812Z,5.65
2022-08-04T23:45:15.435Z,6.15
2022-08-04T23:48:15.843Z,6.43
2022-08-04T23:50:45.453Z,6.32
2022-08-04T23:53:18.764Z,6.82
2022-08-04T23:55:49.156Z,7.30
2022-08-04T23:58:18.731Z,6.35
